createdAt,value
2023-01-02T00:01:36.349Z,1.37
2023-01-02T00:04:04.347Z,1.53
2023-01-02T00:06:34.529Z,1.37
2023-01-02T00:09:03.876Z,1.73
2023-01-02T00:11:31.819Z,1.43
2023-01-02T00:13:59.721Z,1.37
2023-01-02T00:16:27.708Z,1.20
2023-01-02T00:18:55.684Z,1.33
2023-01-02T00:21:23.617Z,1.00
2023-01-02T00:23:51.527Z,1.37
2023-01-02T00:26:20.848Z,1.50
2023-01-02T00:28:48.755Z,1.70
2023-01-02T00:31:16.759Z,1.20
2023-01-02T00:33:44.799Z,1.17
2023-01-02T00:36:13.341Z,1.47
2023-01-02T00:38:41.367Z,1.53
2023-01-02T00:41:09.256Z,1.67
2023-01-02T00:43:38.521Z,1.67
2023-01-02T00:46:11.671Z,1.60
2023-01-02T00:48:40.410Z,1.70
2023-01-02T00:51:08.403Z,1.40
2023-01-02T00:53:36.352Z,1.77
2023-01-02T00:56:04.347Z,1.57
2023-01-02T00:58:32.319Z,1.10
2023-01-02T01:01:01.708Z,1.63
2023-01-02T01:03:30.074Z,1.53
2023-01-02T01:05:58.011Z,1.60
2023-01-02T01:08:25.933Z,1.63
2023-01-02T01:10:53.869Z,1.80
2023-01-02T01:13:21.788Z,1.50
2023-01-02T01:15:49.767Z,1.90
2023-01-02T01:18:19.121Z,1.80
2023-01-02T01:20:47.661Z,1.73
2023-01-02T01:23:15.578Z,2.73
2023-01-02T01:25:43.507Z,2.57
2023-01-02T01:28:11.402Z,2.63
2023-01-02T01:30:39.274Z,2.27
2023-01-02T01:33:07.200Z,2.03
2023-01-02T01:35:36.458Z,1.80
2023-01-02T01:38:04.449Z,2.60
2023-01-02T01:40:38.745Z,2.30
2023-01-02T01:43:10.463Z,2.40
2023-01-02T01:45:38.381Z,2.40
2023-01-02T01:48:06.663Z,2.50
2023-01-02T01:50:36.508Z,2.00
2023-01-02T01:53:05.415Z,1.77
2023-01-02T01:55:34.452Z,1.80
2023-01-02T01:58:03.898Z,1.33
2023-01-02T02:00:31.863Z,1.63
2023-01-02T02:03:02.733Z,1.40
2023-01-02T02:05:30.973Z,1.40
2023-01-02T02:08:01.595Z,1.50
2023-01-02T02:10:29.584Z,1.63
2023-01-02T02:12:57.460Z,1.53
2023-01-02T02:15:28.616Z,2.40
2023-01-02T02:18:00.959Z,1.40
2023-01-02T02:20:33.335Z,1.70
2023-01-02T02:23:43.153Z,1.73
2023-01-02T02:26:38.261Z,1.73
2023-01-02T02:29:28.893Z,2.10
2023-01-02T02:31:59.858Z,1.73
2023-01-02T02:34:29.667Z,1.70
2023-01-02T02:36:59.313Z,1.33
2023-01-02T02:39:31.583Z,1.80
2023-01-02T02:42:02.871Z,1.37
2023-01-02T02:44:33.912Z,1.53
2023-01-02T02:47:04.864Z,2.23
2023-01-02T02:49:40.481Z,1.43
2023-01-02T02:52:14.056Z,1.23
2023-01-02T02:54:43.792Z,1.50
2023-01-02T02:57:12.455Z,1.50
2023-01-02T02:59:40.383Z,1.27
2023-01-02T03:02:09.817Z,1.40
2023-01-02T03:04:38.424Z,1.63
2023-01-02T03:07:12.932Z,1.73
2023-01-02T03:09:48.000Z,2.17
2023-01-02T03:12:21.077Z,2.33
2023-01-02T03:14:55.579Z,2.20
2023-01-02T03:17:28.438Z,2.27
2023-01-02T03:19:58.427Z,1.90
2023-01-02T03:22:27.643Z,1.83
2023-01-02T03:24:55.581Z,2.17
2023-01-02T03:27:24.828Z,2.00
2023-01-02T03:29:56.682Z,1.70
2023-01-02T03:32:27.993Z,1.80
2023-01-02T03:34:55.925Z,2.03
2023-01-02T03:37:26.143Z,2.10
2023-01-02T03:39:56.250Z,2.03
2023-01-02T03:42:26.623Z,1.80
2023-01-02T03:44:58.144Z,2.13
2023-01-02T03:47:28.976Z,1.90
2023-01-02T03:49:58.802Z,2.00
2023-01-02T03:52:26.755Z,1.87
2023-01-02T03:54:55.035Z,1.60
2023-01-02T03:57:25.800Z,1.50
2023-01-02T03:59:58.132Z,1.80
2023-01-02T04:02:29.728Z,1.50
2023-01-02T04:04:58.499Z,1.83
2023-01-02T04:07:28.503Z,2.07
2023-01-02T04:09:56.603Z,2.00
2023-01-02T04:12:24.873Z,1.80
2023-01-02T04:14:53.653Z,2.10
2023-01-02T04:17:21.745Z,2.10
2023-01-02T04:19:51.575Z,1.87
2023-01-02T04:22:21.721Z,1.77
2023-01-02T04:24:51.612Z,1.63
2023-01-02T04:27:21.393Z,1.60
2023-01-02T04:29:49.302Z,1.57
2023-01-02T04:32:19.555Z,1.80
2023-01-02T04:34:47.479Z,1.90
2023-01-02T04:37:28.991Z,1.83
2023-01-02T04:39:57.832Z,1.60
2023-01-02T04:42:25.971Z,1.70
2023-01-02T04:44:53.909Z,1.50
2023-01-02T04:47:22.146Z,1.70
2023-01-02T04:49:50.166Z,1.60
2023-01-02T04:52:18.089Z,1.63
2023-01-02T04:54:47.512Z,1.50
2023-01-02T04:57:15.504Z,1.60
2023-01-02T04:59:43.430Z,1.47
2023-01-02T05:02:11.617Z,1.37
2023-01-02T05:04:39.557Z,1.87
2023-01-02T05:07:07.566Z,1.80
2023-01-02T05:09:35.454Z,1.50
2023-01-02T05:12:05.113Z,1.60
2023-01-02T05:14:33.014Z,1.50
2023-01-02T05:17:00.937Z,1.30
2023-01-02T05:19:28.832Z,1.30
2023-01-02T05:22:14.129Z,1.77
2023-01-02T05:24:42.000Z,1.30
2023-01-02T05:27:11.260Z,1.40
2023-01-02T05:29:39.185Z,1.27
2023-01-02T05:32:07.393Z,1.27
2023-01-02T05:34:35.357Z,1.60
2023-01-02T05:37:03.280Z,1.50
2023-01-02T05:39:31.240Z,1.40
2023-01-02T05:41:59.214Z,1.73
2023-01-02T05:44:28.514Z,1.20
2023-01-02T05:46:56.509Z,1.13
2023-01-02T05:49:24.476Z,1.10
2023-01-02T05:51:52.383Z,1.30
2023-01-02T05:54:20.268Z,1.20
2023-01-02T05:56:48.237Z,1.20
2023-01-02T05:59:16.517Z,1.27
2023-01-02T06:01:46.046Z,1.20
2023-01-02T06:04:19.457Z,1.50
2023-01-02T06:06:49.552Z,1.10
2023-01-02T06:09:17.918Z,1.10
2023-01-02T06:11:45.859Z,1.10
2023-01-02T06:14:13.778Z,1.30
2023-01-02T06:16:41.830Z,1.10
2023-01-02T06:19:11.192Z,1.33
2023-01-02T06:21:39.073Z,1.30
2023-01-02T06:24:07.611Z,1.30
2023-01-02T06:26:35.738Z,1.20
2023-01-02T06:29:04.130Z,1.30
2023-01-02T06:31:33.390Z,1.50
2023-01-02T06:34:02.810Z,1.80
2023-01-02T06:36:32.945Z,2.03
2023-01-02T06:39:00.888Z,2.47
2023-01-02T06:41:28.808Z,2.07
2023-01-02T06:43:56.715Z,2.30
2023-01-02T06:46:24.867Z,1.90
2023-01-02T06:48:52.993Z,2.07
2023-01-02T06:51:21.692Z,2.07
2023-01-02T06:53:51.213Z,2.10
2023-01-02T06:56:20.359Z,1.60
2023-01-02T06:58:48.290Z,1.77
2023-01-02T07:01:17.090Z,2.27
2023-01-02T07:03:45.230Z,1.80
2023-01-02T07:06:14.969Z,2.03
2023-01-02T07:08:43.125Z,1.93
2023-01-02T07:11:14.294Z,2.17
2023-01-02T07:13:42.854Z,1.73
2023-01-02T07:16:11.622Z,1.70
2023-01-02T07:18:39.686Z,1.63
2023-01-02T07:21:08.169Z,1.60
2023-01-02T07:23:36.364Z,1.80
2023-01-02T07:26:05.073Z,1.90
2023-01-02T07:28:34.624Z,1.70
2023-01-02T07:31:03.283Z,2.30
2023-01-02T07:33:32.007Z,1.70
2023-01-02T07:36:00.161Z,1.60
2023-01-02T07:38:28.187Z,1.93
2023-01-02T07:40:56.216Z,1.87
2023-01-02T07:43:24.235Z,1.90
2023-01-02T07:45:53.718Z,1.67
2023-01-02T07:48:21.806Z,1.80
2023-01-02T07:50:49.819Z,2.40
2023-01-02T07:53:17.723Z,2.17
2023-01-02T07:55:45.783Z,2.03
2023-01-02T07:58:13.760Z,1.90
2023-01-02T08:00:41.853Z,1.80
2023-01-02T08:03:11.205Z,1.70
2023-01-02T08:05:39.340Z,1.90
2023-01-02T08:08:07.979Z,1.80
2023-01-02T08:10:37.179Z,1.63
2023-01-02T08:13:05.237Z,1.70
2023-01-02T08:15:33.165Z,1.73
2023-01-02T08:18:01.168Z,1.70
2023-01-02T08:20:30.504Z,1.80
2023-01-02T08:22:58.713Z,1.73
2023-01-02T08:25:26.729Z,1.90
2023-01-02T08:27:55.053Z,1.47
2023-01-02T08:30:23.075Z,1.30
2023-01-02T08:32:51.060Z,1.90
2023-01-02T08:35:34.301Z,2.73
2023-01-02T08:38:07.140Z,1.77
2023-01-02T08:40:37.457Z,8.03
2023-01-02T08:43:05.399Z,3.30
2023-01-02T08:45:33.359Z,3.20
2023-01-02T08:48:01.416Z,3.17
2023-01-02T08:50:49.302Z,3.30
2023-01-02T08:53:18.836Z,2.20
2023-01-02T08:55:46.794Z,1.87
2023-01-02T08:58:14.695Z,1.67
2023-01-02T09:00:42.713Z,2.03
2023-01-02T09:03:10.695Z,2.17
2023-01-02T09:05:38.652Z,1.90
2023-01-02T09:08:06.684Z,1.80
2023-01-02T09:10:35.977Z,1.90
2023-01-02T09:13:03.950Z,1.80
2023-01-02T09:15:32.539Z,1.83
2023-01-02T09:18:00.590Z,1.67
2023-01-02T09:20:28.463Z,1.60
2023-01-02T09:22:56.507Z,2.10
2023-01-02T09:25:24.772Z,1.50
2023-01-02T09:27:54.197Z,2.10
2023-01-02T09:30:22.127Z,2.27
2023-01-02T09:32:50.977Z,1.80
2023-01-02T09:35:20.902Z,1.90
2023-01-02T09:37:48.802Z,2.00
2023-01-02T09:40:16.775Z,1.73
2023-01-02T09:42:44.724Z,1.93
2023-01-02T09:45:14.387Z,1.90
2023-01-02T09:47:42.379Z,1.97
2023-01-02T09:50:12.393Z,2.00
2023-01-02T09:52:41.821Z,2.00
2023-01-02T09:55:15.954Z,2.20
2023-01-02T09:57:46.914Z,2.97
2023-01-02T10:00:18.100Z,3.20
2023-01-02T10:03:00.408Z,3.20
2023-01-02T10:05:51.544Z,2.60
2023-01-02T10:08:29.556Z,2.50
2023-01-02T10:11:05.864Z,2.73
2023-01-02T10:14:08.909Z,3.23
2023-01-02T10:16:26.879Z,2.43
2023-01-02T10:18:55.631Z,6.00
2023-01-02T10:21:25.986Z,2.60
2023-01-02T10:23:55.887Z,3.03
2023-01-02T10:26:25.248Z,2.60
2023-01-02T10:28:55.552Z,2.50
2023-01-02T10:31:26.343Z,2.60
2023-01-02T10:33:57.239Z,2.70
2023-01-02T10:36:27.674Z,2.70
2023-01-02T10:38:56.760Z,2.50
2023-01-02T10:41:24.675Z,2.03
2023-01-02T10:43:54.780Z,2.10
2023-01-02T10:46:24.270Z,2.63
2023-01-02T10:48:52.528Z,2.20
2023-01-02T10:51:20.521Z,2.00
2023-01-02T10:54:03.387Z,1.80
2023-01-02T10:56:32.059Z,2.23
2023-01-02T10:59:00.083Z,2.10
2023-01-02T11:01:29.599Z,2.00
2023-01-02T11:04:13.855Z,1.80
2023-01-02T11:06:53.177Z,2.03
2023-01-02T11:09:22.444Z,1.90
2023-01-02T11:11:51.028Z,1.60
2023-01-02T11:14:22.212Z,1.67
2023-01-02T11:16:51.593Z,2.33
2023-01-02T11:19:27.421Z,1.97
2023-01-02T11:21:57.562Z,1.70
2023-01-02T11:24:28.534Z,1.70
2023-01-02T11:26:56.809Z,1.73
2023-01-02T11:29:32.848Z,1.70
2023-01-02T11:32:02.980Z,1.40
2023-01-02T11:34:34.518Z,1.63
2023-01-02T11:37:07.836Z,1.47
2023-01-02T11:39:36.040Z,1.70
2023-01-02T11:42:34.900Z,1.80
2023-01-02T11:45:08.217Z,1.97
2023-01-02T11:47:38.662Z,4.20
2023-01-02T11:50:07.349Z,1.70
2023-01-02T11:52:41.326Z,1.23
2023-01-02T11:55:17.711Z,1.73
2023-01-02T11:57:48.824Z,1.70
2023-01-02T12:00:18.237Z,1.87
2023-01-02T12:02:50.831Z,1.37
2023-01-02T12:05:23.408Z,1.50
2023-01-02T12:07:55.711Z,1.40
2023-01-02T12:10:38.964Z,1.67
2023-01-02T12:13:15.550Z,1.40
2023-01-02T12:16:08.939Z,1.20
2023-01-02T12:19:05.564Z,1.13
2023-01-02T12:21:34.925Z,1.20
2023-01-02T12:24:22.120Z,0.70
2023-01-02T12:26:52.181Z,0.93
2023-01-02T12:29:47.177Z,1.00
2023-01-02T12:32:49.219Z,0.77
2023-01-02T12:35:50.318Z,1.00
2023-01-02T12:38:23.044Z,1.07
2023-01-02T12:41:03.430Z,1.10
2023-01-02T12:44:00.563Z,1.70
2023-01-02T12:46:40.473Z,0.90
2023-01-02T12:49:18.667Z,0.50
2023-01-02T12:51:50.746Z,0.70
2023-01-02T12:54:39.636Z,0.53
2023-01-02T12:57:11.804Z,0.87
2023-01-02T12:59:57.236Z,0.80
2023-01-02T13:02:42.428Z,1.10
2023-01-02T13:05:13.706Z,0.90
2023-01-02T13:07:44.545Z,0.57
2023-01-02T13:10:16.775Z,1.03
2023-01-02T13:12:44.805Z,1.27
2023-01-02T13:15:18.112Z,1.50
2023-01-02T13:17:51.552Z,0.83
2023-01-02T13:20:24.966Z,1.00
2023-01-02T13:22:58.900Z,0.80
2023-01-02T13:25:26.902Z,0.90
2023-01-02T13:27:55.179Z,0.80
2023-01-02T13:30:48.179Z,0.80
2023-01-02T13:33:22.334Z,0.80
2023-01-02T13:35:50.581Z,0.70
2023-01-02T13:38:19.910Z,0.90
2023-01-02T13:40:48.542Z,0.90
2023-01-02T13:43:18.058Z,0.70
2023-01-02T13:45:46.989Z,0.63
2023-01-02T13:48:20.778Z,1.10
2023-01-02T13:50:48.857Z,0.70
2023-01-02T13:53:31.086Z,0.80
2023-01-02T13:56:04.893Z,0.77
2023-01-02T13:58:49.192Z,0.80
2023-01-02T14:01:42.893Z,0.80
2023-01-02T14:04:39.929Z,0.80
2023-01-02T14:07:43.136Z,1.40
2023-01-02T14:10:31.159Z,0.80
2023-01-02T14:13:01.523Z,1.17
2023-01-02T14:15:29.636Z,0.97
2023-01-02T14:18:03.991Z,1.17
2023-01-02T14:20:32.531Z,0.93
2023-01-02T14:23:02.167Z,1.33
2023-01-02T14:25:31.893Z,1.90
2023-01-02T14:28:00.487Z,1.00
2023-01-02T14:30:32.629Z,1.20
2023-01-02T14:33:00.948Z,1.03
2023-01-02T14:35:31.855Z,1.00
2023-01-02T14:38:08.962Z,1.00
2023-01-02T14:40:39.565Z,0.90
2023-01-02T14:43:28.276Z,0.70
2023-01-02T14:45:58.594Z,0.70
2023-01-02T14:48:32.922Z,1.00
2023-01-02T14:51:03.398Z,0.80
2023-01-02T14:53:32.609Z,0.80
2023-01-02T14:56:03.764Z,0.60
2023-01-02T14:58:36.305Z,0.67
2023-01-02T15:01:04.819Z,0.70
2023-01-02T15:03:34.626Z,0.90
2023-01-02T15:06:05.033Z,0.87
2023-01-02T15:08:38.658Z,0.73
2023-01-02T15:11:35.128Z,0.80
2023-01-02T15:14:05.093Z,0.77
2023-01-02T15:16:35.050Z,0.90
2023-01-02T15:19:03.632Z,0.70
2023-01-02T15:21:31.654Z,1.30
2023-01-02T15:24:02.014Z,0.80
2023-01-02T15:26:35.162Z,0.90
2023-01-02T15:29:04.332Z,1.40
2023-01-02T15:31:32.372Z,1.33
2023-01-02T15:34:01.121Z,0.83
2023-01-02T15:36:34.130Z,1.00
2023-01-02T15:39:06.850Z,1.40
2023-01-02T15:41:41.408Z,1.60
2023-01-02T15:44:28.952Z,2.57
2023-01-02T15:46:57.470Z,7.83
2023-01-02T15:49:25.386Z,5.83
2023-01-02T15:51:55.061Z,4.30
2023-01-02T15:54:23.080Z,4.17
2023-01-02T15:56:52.747Z,4.50
2023-01-02T15:59:28.886Z,6.87
2023-01-02T16:01:56.990Z,4.97
2023-01-02T16:04:26.032Z,2.80
2023-01-02T16:06:54.215Z,2.53
2023-01-02T16:09:24.825Z,8.67
2023-01-02T16:11:54.886Z,10.47
2023-01-02T16:14:24.371Z,8.73
2023-01-02T16:16:53.841Z,3.53
2023-01-02T16:19:24.781Z,4.13
2023-01-02T16:21:53.520Z,1.57
2023-01-02T16:24:22.099Z,1.57
2023-01-02T16:26:50.119Z,1.00
2023-01-02T16:29:20.064Z,0.90
2023-01-02T16:31:56.493Z,0.63
2023-01-02T16:34:29.002Z,0.97
2023-01-02T16:37:31.469Z,1.27
2023-01-02T16:39:59.540Z,0.93
2023-01-02T16:42:37.954Z,1.00
2023-01-02T16:45:08.623Z,0.90
2023-01-02T16:47:38.817Z,1.10
2023-01-02T16:50:08.235Z,1.00
2023-01-02T16:52:37.270Z,0.93
2023-01-02T16:55:06.185Z,1.30
2023-01-02T16:57:34.239Z,1.30
2023-01-02T17:00:02.622Z,1.60
2023-01-02T17:02:32.181Z,1.40
2023-01-02T17:05:00.351Z,1.93
2023-01-02T17:07:28.367Z,2.47
2023-01-02T17:09:56.318Z,2.13
2023-01-02T17:12:24.326Z,2.57
2023-01-02T17:14:52.355Z,4.60
2023-01-02T17:17:20.489Z,4.27
2023-01-02T17:19:49.895Z,3.60
2023-01-02T17:22:17.941Z,3.93
2023-01-02T17:24:45.886Z,6.07
2023-01-02T17:27:13.793Z,5.80
2023-01-02T17:29:42.575Z,6.50
2023-01-02T17:32:10.529Z,6.00
2023-01-02T17:34:38.507Z,6.63
2023-01-02T17:37:08.023Z,6.30
2023-01-02T17:39:36.065Z,9.43
2023-01-02T17:42:04.081Z,9.80
2023-01-02T17:44:32.123Z,13.10
2023-01-02T17:49:48.058Z,7.07
2023-01-02T17:52:17.371Z,7.93
2023-01-02T17:54:48.581Z,8.50
2023-01-02T17:57:20.890Z,10.93
2023-01-02T17:59:48.877Z,14.07
2023-01-02T18:02:17.574Z,12.43
2023-01-02T18:04:52.637Z,8.63
2023-01-02T18:07:24.394Z,8.73
2023-01-02T18:10:07.975Z,8.73
2023-01-02T18:12:38.082Z,7.90
2023-01-02T18:15:11.759Z,8.00
2023-01-02T18:17:39.886Z,8.17
2023-01-02T18:20:14.839Z,8.33
2023-01-02T18:22:48.870Z,7.27
2023-01-02T18:25:20.199Z,6.97
2023-01-02T18:27:48.529Z,5.53
2023-01-02T18:30:19.639Z,5.20
2023-01-02T18:32:47.648Z,6.07
2023-01-02T18:35:54.898Z,5.27
2023-01-02T18:38:15.613Z,5.03
2023-01-02T18:40:43.626Z,5.47
2023-01-02T18:43:19.368Z,6.30
2023-01-02T18:45:48.198Z,5.20
2023-01-02T18:48:17.714Z,5.43
2023-01-02T18:50:46.554Z,5.50
2023-01-02T18:53:20.582Z,6.10
2023-01-02T18:55:48.677Z,9.23
2023-01-02T18:58:40.933Z,8.07
2023-01-02T19:01:20.305Z,6.70
2023-01-02T19:03:49.317Z,7.23
2023-01-02T19:06:18.431Z,8.80
2023-01-02T19:08:47.932Z,7.30
2023-01-02T19:11:31.705Z,6.30
2023-01-02T19:13:59.625Z,6.00
2023-01-02T19:16:27.757Z,6.00
2023-01-02T19:18:56.296Z,6.03
2023-01-02T19:21:27.854Z,6.27
2023-01-02T19:23:59.270Z,7.13
2023-01-02T19:26:30.651Z,7.03
2023-01-02T19:29:00.123Z,6.97
2023-01-02T19:31:31.793Z,7.47
2023-01-02T19:34:01.547Z,7.50
2023-01-02T19:36:36.738Z,6.73
2023-01-02T19:39:19.550Z,6.20
2023-01-02T19:42:05.003Z,5.93
2023-01-02T19:44:33.084Z,5.33
2023-01-02T19:47:01.033Z,7.33
2023-01-02T19:49:29.063Z,7.20
2023-01-02T19:51:56.977Z,6.47
2023-01-02T19:54:26.399Z,6.40
2023-01-02T19:56:54.621Z,6.07
2023-01-02T19:59:22.852Z,6.50
2023-01-02T20:01:51.050Z,5.90
2023-01-02T20:04:19.213Z,5.77
2023-01-02T20:06:47.143Z,6.20
2023-01-02T20:09:16.456Z,6.33
2023-01-02T20:12:07.559Z,6.27
2023-01-02T20:14:38.198Z,5.67
2023-01-02T20:17:06.343Z,5.57
2023-01-02T20:19:34.231Z,5.80
2023-01-02T20:22:02.250Z,5.13
2023-01-02T20:24:30.370Z,5.60
2023-01-02T20:27:00.443Z,6.13
2023-01-02T20:29:28.542Z,5.87
2023-01-02T20:31:59.191Z,5.73
2023-01-02T20:34:27.216Z,4.83
2023-01-02T20:36:55.171Z,4.87
2023-01-02T20:39:23.138Z,5.77
2023-01-02T20:41:51.076Z,5.57
2023-01-02T20:44:20.480Z,4.93
2023-01-02T20:46:48.716Z,4.80
2023-01-02T20:49:17.658Z,5.10
2023-01-02T20:51:52.040Z,5.47
2023-01-02T20:54:20.012Z,5.27
2023-01-02T20:56:47.960Z,5.07
2023-01-02T20:59:15.934Z,4.87
2023-01-02T21:01:45.399Z,5.00
2023-01-02T21:04:13.497Z,5.27
2023-01-02T21:06:42.110Z,5.13
2023-01-02T21:09:10.076Z,5.60
2023-01-02T21:11:38.190Z,5.67
2023-01-02T21:14:06.088Z,5.13
2023-01-02T21:16:34.263Z,5.53
2023-01-02T21:19:03.790Z,5.50
2023-01-02T21:21:31.756Z,5.93
2023-01-02T21:23:59.732Z,5.20
2023-01-02T21:26:27.850Z,6.57
2023-01-02T21:28:55.813Z,6.50
2023-01-02T21:31:23.784Z,7.13
2023-01-02T21:33:51.797Z,6.10
2023-01-02T21:36:21.146Z,6.37
2023-01-02T21:38:49.089Z,6.57
2023-01-02T21:41:34.424Z,5.73
2023-01-02T21:44:02.318Z,5.47
2023-01-02T21:46:30.329Z,5.50
2023-01-02T21:48:58.349Z,5.17
2023-01-02T21:51:32.726Z,5.23
2023-01-02T21:54:01.038Z,4.77
2023-01-02T21:56:29.350Z,5.07
2023-01-02T21:58:57.721Z,5.40
2023-01-02T22:01:26.123Z,4.90
2023-01-02T22:03:57.262Z,4.97
2023-01-02T22:06:25.792Z,5.20
2023-01-02T22:08:55.090Z,5.27
2023-01-02T22:11:40.332Z,5.80
2023-01-02T22:14:08.257Z,7.50
2023-01-02T22:16:36.229Z,6.03
2023-01-02T22:19:04.252Z,5.67
2023-01-02T22:21:32.420Z,5.03
2023-01-02T22:24:01.809Z,4.70
2023-01-02T22:26:29.749Z,5.50
2023-01-02T22:28:57.713Z,5.17
2023-01-02T22:31:25.862Z,5.07
2023-01-02T22:33:54.963Z,4.77
2023-01-02T22:36:22.890Z,3.57
2023-01-02T22:39:26.038Z,4.90
2023-01-02T22:41:41.269Z,5.20
2023-01-02T22:44:13.427Z,5.60
2023-01-02T22:46:42.748Z,3.77
2023-01-02T22:49:11.487Z,4.20
2023-01-02T22:52:06.125Z,3.87
2023-01-02T22:54:27.306Z,3.80
2023-01-02T22:56:56.626Z,3.40
2023-01-02T22:59:24.529Z,3.60
2023-01-02T23:01:52.660Z,2.90
2023-01-02T23:04:21.734Z,3.60
2023-01-02T23:07:14.094Z,3.57
2023-01-02T23:09:37.677Z,4.30
2023-01-02T23:12:07.448Z,3.80
2023-01-02T23:14:35.386Z,3.67
2023-01-02T23:17:20.759Z,4.03
2023-01-02T23:19:48.767Z,3.70
2023-01-02T23:22:16.700Z,3.60
2023-01-02T23:24:44.621Z,3.80
2023-01-02T23:27:14.036Z,3.33
2023-01-02T23:29:41.998Z,3.40
2023-01-02T23:32:11.263Z,3.30
2023-01-02T23:34:39.286Z,3.70
2023-01-02T23:37:07.338Z,3.93
2023-01-02T23:39:35.265Z,3.60
2023-01-02T23:42:03.517Z,4.33
2023-01-02T23:44:32.826Z,4.50
2023-01-02T23:47:05.479Z,4.43
2023-01-02T23:49:36.819Z,6.60
2023-01-02T23:52:05.579Z,4.80
2023-01-02T23:54:33.652Z,5.40
2023-01-02T23:57:01.569Z,5.27
2023-01-02T23:59:29.509Z,6.00
